Terminal Aerodrome Forecast
Issued by NWS

Home | Current Version | Previous Version | Text Only | Print | Product List | Glossary On
Versions: 1 2 3 4 5 6 7 8 9 10 11 12 13 14 15 16 17 18 19 20 21 22 23
000
FTUS42 KMLB 271916 AAA
TAFISM
TAF AMD
KISM 271916Z 2719/2818 25015KT P6SM VCTS SCT035CB BKN050
      TEMPO 2719/2721 3SM TSRA BKN025CB
     FM280000 28013KT P6SM VCSH BKN035
     FM280300 30011KT P6SM BKN250=

USA.gov is the U.S. government's official web portal to all federal, state and local government web resources and services.